Time;durP1;ratioP1;P1;durP2;ratioP2;P2;SDS_P1;SDS_P2;PMS_P1;PMS_P2;Temp;Humidity;BMP_temperature;BMP_pressure;BME280_temperature;BME280_humidity;BME280_pressure;Samples;Min_cycle;Max_cycle;Signal;HPM_P1;HPM_P2
2021/05/01 00:00:38;;;;;;;27.62;9.13;;;;;;;13.13;100.00;100665.09;1667328;86;21313;-82
2021/05/01 00:03:04;;;;;;;19.75;9.00;;;;;;;13.15;100.00;100663.75;1667327;85;21235;-82
2021/05/01 00:05:30;;;;;;;25.70;9.05;;;;;;;13.14;100.00;100672.13;1667447;86;21175;-82
2021/05/01 00:07:56;;;;;;;21.65;7.45;;;;;;;13.14;100.00;100670.22;1667534;86;21162;-82
2021/05/01 00:10:22;;;;;;;21.33;7.85;;;;;;;13.14;100.00;100678.34;1642341;86;21149;-82
2021/05/01 00:12:48;;;;;;;26.23;7.78;;;;;;;13.17;100.00;100676.44;1667426;86;21206;-82
2021/05/01 00:15:15;;;;;;;16.37;7.47;;;;;;;13.22;100.00;100674.27;1667317;86;21128;-82
2021/05/01 00:17:41;;;;;;;19.35;8.45;;;;;;;13.27;100.00;100678.91;1667417;86;21491;-82
2021/05/01 00:20:09;;;;;;;18.40;7.53;;;;;;;13.31;100.00;100678.61;1667389;86;21175;-82
2021/05/01 00:22:35;;;;;;;17.00;8.08;;;;;;;13.35;100.00;100672.89;1667511;86;21096;-82
2021/05/01 00:25:00;;;;;;;20.52;8.85;;;;;;;13.39;100.00;100675.34;1663830;84;21085;-82
2021/05/01 00:27:26;;;;;;;21.60;8.80;;;;;;;13.47;100.00;100673.41;1650639;86;20981;-82
2021/05/01 00:29:52;;;;;;;18.40;8.80;;;;;;;13.54;100.00;100669.05;1650606;87;21073;-82
2021/05/01 00:32:18;;;;;;;19.17;9.23;;;;;;;13.49;100.00;100674.48;1650640;87;21667;-82
2021/05/01 00:34:44;;;;;;;21.05;8.45;;;;;;;13.45;100.00;100660.69;1650759;87;21035;-82
2021/05/01 00:37:10;;;;;;;22.70;9.63;;;;;;;13.41;100.00;100674.50;1650679;87;21279;-82
2021/05/01 00:39:36;;;;;;;28.07;9.60;;;;;;;13.40;100.00;100673.69;1650717;86;21049;-82
2021/05/01 00:42:02;;;;;;;29.40;10.40;;;;;;;13.41;100.00;100674.50;1650766;87;21053;-82
2021/05/01 00:44:27;;;;;;;21.17;8.95;;;;;;;13.41;100.00;100671.79;1650539;86;20994;-82
2021/05/01 00:46:53;;;;;;;22.42;9.98;;;;;;;13.45;100.00;100674.77;1650681;86;21069;-82
2021/05/01 00:49:19;;;;;;;21.17;9.35;;;;;;;13.45;100.00;100678.84;1650710;86;21270;-82
2021/05/01 00:51:45;;;;;;;23.05;10.13;;;;;;;13.42;100.00;100680.75;1636964;87;21129;-82
2021/05/01 00:54:11;;;;;;;31.40;9.15;;;;;;;13.40;100.00;100695.89;1636998;87;21669;-82
2021/05/01 00:56:37;;;;;;;17.82;9.25;;;;;;;13.35;100.00;100699.97;1636907;87;21058;-82
2021/05/01 00:59:03;;;;;;;29.60;8.25;;;;;;;13.32;100.00;100694.55;1636819;87;21184;-82
2021/05/01 01:01:30;;;;;;;20.62;9.13;;;;;;;13.31;100.00;100701.61;1637110;86;21370;-82
2021/05/01 01:03:56;;;;;;;20.02;9.20;;;;;;;13.29;100.00;100693.75;1637063;87;21156;-82
2021/05/01 01:06:22;;;;;;;21.17;9.13;;;;;;;13.28;100.00;100689.98;1637094;87;21149;-82
2021/05/01 01:08:48;;;;;;;23.95;9.60;;;;;;;13.25;100.00;100696.75;1637147;87;21077;-82
2021/05/01 01:11:14;;;;;;;24.00;10.13;;;;;;;13.25;100.00;100695.91;1637202;87;20998;-82
2021/05/01 01:13:40;;;;;;;20.95;8.45;;;;;;;13.25;100.00;100694.56;1637025;87;21197;-82
2021/05/01 01:16:06;;;;;;;24.00;8.98;;;;;;;13.15;100.00;100696.22;1637058;87;21165;-82
2021/05/01 01:18:34;;;;;;;23.98;9.55;;;;;;;13.15;100.00;100694.86;1637087;87;21133;-82
2021/05/01 01:21:04;;;;;;;23.27;9.93;;;;;;;13.14;100.00;100691.87;1637098;87;21156;-82
2021/05/01 01:23:31;;;;;;;25.95;10.05;;;;;;;13.17;100.00;100701.34;1637133;87;21134;-82
2021/05/01 01:25:58;;;;;;;24.40;9.83;;;;;;;13.18;100.00;100707.04;1642680;87;21426;-82
2021/05/01 01:28:27;;;;;;;29.32;9.80;;;;;;;13.19;100.00;100704.59;1649359;86;21179;-82
2021/05/01 01:30:53;;;;;;;25.97;11.30;;;;;;;13.24;100.00;100705.13;1649392;86;21173;-80
2021/05/01 01:33:20;;;;;;;26.00;10.88;;;;;;;13.20;100.00;100702.14;1649289;86;21771;-81
2021/05/01 01:35:46;;;;;;;31.65;11.93;;;;;;;13.19;100.00;100699.17;1649232;86;21173;-83
2021/05/01 01:38:12;;;;;;;27.62;11.57;;;;;;;13.18;100.00;100697.56;1649303;86;21177;-83
2021/05/01 01:40:41;;;;;;;28.20;11.50;;;;;;;13.09;100.00;100704.63;1649013;86;21084;-83
2021/05/01 01:43:06;;;;;;;27.58;11.90;;;;;;;13.07;100.00;100700.02;1648926;86;21720;-83
2021/05/01 01:45:32;;;;;;;33.23;11.88;;;;;;;13.10;100.00;100696.77;1649428;86;20989;-82
2021/05/01 01:47:59;;;;;;;27.90;12.70;;;;;;;13.07;100.00;100692.71;1649191;86;21117;-81
2021/05/01 01:50:27;;;;;;;35.60;12.75;;;;;;;13.04;100.00;100699.22;1649359;86;21671;-81
2021/05/01 01:52:54;;;;;;;31.65;13.22;;;;;;;13.09;100.00;100695.16;1649254;86;21113;-81
2021/05/01 01:55:23;;;;;;;33.55;12.23;;;;;;;13.12;100.00;100697.31;1649170;86;22346;-81
2021/05/01 01:57:51;;;;;;;27.17;12.90;;;;;;;13.13;100.00;100699.73;1649156;86;21179;-81
2021/05/01 02:00:22;;;;;;;26.68;11.97;;;;;;;13.17;100.00;100702.14;1649409;86;21171;-81
2021/05/01 02:02:48;;;;;;;30.50;12.13;;;;;;;13.09;100.00;100710.84;1649278;86;22042;-80
2021/05/01 02:05:16;;;;;;;28.30;13.18;;;;;;;13.06;100.00;100728.98;1649203;86;21159;-81
2021/05/01 02:07:42;;;;;;;34.70;13.25;;;;;;;13.02;100.00;100727.08;1649154;86;21184;-81
2021/05/01 02:10:10;;;;;;;30.65;13.32;;;;;;;13.06;100.00;100734.91;1649335;86;21212;-80
2021/05/01 02:12:38;;;;;;;42.35;14.35;;;;;;;13.12;100.00;100725.73;1645308;86;22272;-81
2021/05/01 02:15:13;;;;;;;35.05;13.78;;;;;;;13.11;100.00;100723.53;1649311;86;21974;-80
2021/05/01 02:17:42;;;;;;;40.92;14.68;;;;;;;13.10;100.00;100727.33;1649304;86;21171;-80
2021/05/01 02:20:11;;;;;;;35.78;14.05;;;;;;;13.13;100.00;100721.37;1649225;86;21569;-80
2021/05/01 02:22:38;;;;;;;38.73;14.05;;;;;;;13.12;100.00;100710.84;1649228;86;21165;-80
2021/05/01 02:25:08;;;;;;;34.73;14.03;;;;;;;13.22;100.00;100705.94;1649309;86;21208;-80
2021/05/01 02:27:34;;;;;;;35.78;14.45;;;;;;;13.04;100.00;100708.14;1649406;86;21268;-81
2021/05/01 02:30:00;;;;;;;32.73;14.00;;;;;;;12.96;100.00;100700.56;1649249;86;21640;-81
2021/05/01 02:32:26;;;;;;;42.13;16.17;;;;;;;12.88;100.00;100707.36;1649281;86;21207;-80
2021/05/01 02:34:52;;;;;;;41.55;16.05;;;;;;;12.90;100.00;100712.48;1649311;86;21164;-80
2021/05/01 02:37:18;;;;;;;37.90;15.80;;;;;;;12.93;100.00;100718.16;1649343;86;20954;-80
2021/05/01 02:39:44;;;;;;;35.80;14.93;;;;;;;12.90;100.00;100718.70;1649374;86;21276;-80
2021/05/01 02:42:10;;;;;;;38.60;15.08;;;;;;;12.89;100.00;100716.28;1649217;86;21119;-80
2021/05/01 02:44:36;;;;;;;38.33;15.65;;;;;;;12.81;100.00;100718.98;1649249;86;21022;-80
2021/05/01 02:47:02;;;;;;;38.17;16.70;;;;;;;12.77;100.00;100714.41;1649302;86;21517;-80
2021/05/01 02:49:28;;;;;;;38.08;15.28;;;;;;;12.73;100.00;100714.95;1649208;86;20977;-80
2021/05/01 02:51:54;;;;;;;40.85;15.58;;;;;;;12.72;100.00;100721.96;1649257;86;21264;-80
2021/05/01 02:54:20;;;;;;;42.55;16.55;;;;;;;12.61;100.00;100719.78;1649305;86;21667;-80
2021/05/01 02:56:45;;;;;;;40.40;15.75;;;;;;;12.47;100.00;100718.18;1649294;86;21034;-80
2021/05/01 02:59:11;;;;;;;41.92;15.85;;;;;;;12.49;100.00;100724.66;1649175;86;20914;-80
2021/05/01 03:01:37;;;;;;;33.55;14.50;;;;;;;12.48;100.00;100738.72;1649087;86;21653;-80
2021/05/01 03:04:04;;;;;;;42.67;16.27;;;;;;;12.46;100.00;100734.66;1649149;86;21310;-80
2021/05/01 03:06:29;;;;;;;49.45;17.92;;;;;;;12.49;100.00;100745.73;1649169;86;21486;-81
2021/05/01 03:08:55;;;;;;;47.08;17.92;;;;;;;12.49;100.00;100751.69;1649310;86;20973;-81
2021/05/01 03:11:21;;;;;;;39.53;16.75;;;;;;;12.52;100.00;100759.25;1649283;86;20994;-81
2021/05/01 03:13:47;;;;;;;35.95;13.78;;;;;;;12.59;100.00;100765.74;1649311;86;22386;-80
2021/05/01 03:16:13;;;;;;;25.95;11.57;;;;;;;12.69;100.00;100765.77;1649230;86;21208;-80
2021/05/01 03:18:39;;;;;;;33.55;12.28;;;;;;;12.67;100.00;100767.38;1649173;86;20954;-80
2021/05/01 03:21:05;;;;;;;29.35;11.55;;;;;;;12.72;100.00;100779.55;1649334;86;21607;-80
2021/05/01 03:23:31;;;;;;;30.45;12.55;;;;;;;12.82;100.00;100783.34;1649231;86;20939;-80
2021/05/01 03:25:57;;;;;;;27.35;12.07;;;;;;;12.93;100.00;100782.27;1649189;86;21569;-80
2021/05/01 03:28:23;;;;;;;26.20;10.55;;;;;;;13.11;100.00;100782.25;1649277;86;21219;-80
2021/05/01 03:30:49;;;;;;;22.58;9.88;;;;;;;13.40;100.00;100777.11;1649096;86;21160;-81
2021/05/01 03:33:16;;;;;;;22.40;9.70;;;;;;;13.86;100.00;100782.39;1649233;86;21184;-80
2021/05/01 03:35:42;;;;;;;21.73;9.55;;;;;;;15.12;100.00;100749.31;1649245;86;21128;-81
2021/05/01 03:38:08;;;;;;;19.95;9.05;;;;;;;15.12;100.00;100749.31;1649368;86;21166;-81
2021/05/01 03:40:34;;;;;;;20.88;9.08;;;;;;;16.16;100.00;100766.88;1649276;86;21300;-80
2021/05/01 03:43:00;;;;;;;15.72;8.43;;;;;;;16.87;100.00;100764.21;1649221;86;21618;-80
2021/05/01 03:45:26;;;;;;;14.50;7.58;;;;;;;17.71;100.00;100762.11;1649064;86;21065;-81
2021/05/01 03:47:52;;;;;;;15.95;7.75;;;;;;;18.30;100.00;100745.08;1649202;86;21220;-81
2021/05/01 03:50:18;;;;;;;15.70;7.75;;;;;;;18.89;100.00;100747.23;1649330;86;21179;-81
2021/05/01 03:52:44;;;;;;;15.93;8.55;;;;;;;19.97;100.00;100740.99;1649109;86;21220;-81
2021/05/01 03:55:10;;;;;;;14.18;7.85;;;;;;;19.93;97.42;100748.23;1649132;86;21088;-81
2021/05/01 03:57:36;;;;;;;18.45;8.33;;;;;;;20.16;100.00;100751.09;1649192;86;21157;-81
2021/05/01 04:00:05;;;;;;;12.47;6.87;;;;;;;20.46;100.00;100766.88;1649243;86;21660;-81
2021/05/01 04:02:32;;;;;;;14.60;6.92;;;;;;;20.87;100.00;100771.30;1649425;86;21156;-81
2021/05/01 04:04:57;;;;;;;13.85;7.37;;;;;;;21.30;84.36;100782.73;1652199;84;21276;-81
2021/05/01 04:07:23;;;;;;;16.30;6.58;;;;;;;21.85;90.42;100781.63;1652124;86;21077;-81
2021/05/01 04:09:49;;;;;;;17.60;6.65;;;;;;;22.68;93.94;100776.80;1627497;86;20944;-81
2021/05/01 04:12:15;;;;;;;11.70;5.72;;;;;;;23.30;81.04;100771.73;1652076;86;21051;-82
2021/05/01 04:14:41;;;;;;;12.58;5.92;;;;;;;23.84;77.17;100772.69;1647925;86;20940;-82
2021/05/01 04:17:07;;;;;;;11.25;6.35;;;;;;;24.24;69.06;100769.42;1652136;86;21642;-82
2021/05/01 04:19:33;;;;;;;11.28;6.08;;;;;;;24.53;66.32;100767.53;1657623;84;21995;-82
2021/05/01 04:22:03;;;;;;;16.97;7.22;;;;;;;24.93;64.49;100770.78;1679731;85;22558;-82
2021/05/01 04:24:26;;;;;;;13.00;6.45;;;;;;;25.20;60.05;100767.77;1679368;85;21198;-82
2021/05/01 04:26:53;;;;;;;14.83;7.10;;;;;;;25.28;56.74;100776.45;1678494;84;20972;-82
2021/05/01 04:29:18;;;;;;;17.02;7.87;;;;;;;25.58;52.25;100772.66;1676788;85;22001;-82
2021/05/01 04:31:44;;;;;;;19.67;9.80;;;;;;;26.28;58.12;100785.73;1676856;84;20956;-82
2021/05/01 04:34:10;;;;;;;20.43;9.88;;;;;;;26.94;50.22;100772.88;1649658;85;21013;-82
2021/05/01 04:36:36;;;;;;;16.02;8.75;;;;;;;27.28;50.74;100789.70;1699010;83;21603;-80
2021/05/01 04:39:03;;;;;;;19.15;10.00;;;;;;;27.52;49.75;100780.81;1673191;84;21047;-80
2021/05/01 04:41:29;;;;;;;19.67;9.83;;;;;;;27.82;49.52;100780.91;1677144;85;22181;-80
2021/05/01 04:43:54;;;;;;;19.40;10.48;;;;;;;28.35;48.62;100786.39;1672286;84;20980;-80
2021/05/01 04:46:20;;;;;;;24.05;11.43;;;;;;;28.42;44.70;100784.35;1672961;84;20992;-81
2021/05/01 04:48:46;;;;;;;19.82;10.65;;;;;;;28.87;45.43;100783.28;1677232;85;20989;-81
2021/05/01 04:51:12;;;;;;;20.77;10.78;;;;;;;28.29;44.03;100789.28;1698975;83;20988;-81
2021/05/01 04:53:38;;;;;;;23.40;11.30;;;;;;;29.08;44.77;100784.71;1677178;85;21090;-81
2021/05/01 04:56:04;;;;;;;30.27;13.43;;;;;;;30.13;41.75;100780.98;1698913;83;20963;-80
2021/05/01 04:58:30;;;;;;;29.42;13.93;;;;;;;29.99;42.00;100777.52;1676966;85;21500;-81
2021/05/01 05:00:57;;;;;;;26.77;13.98;;;;;;;30.46;38.79;100781.95;1698799;83;21461;-83
2021/05/01 05:03:23;;;;;;;24.98;13.22;;;;;;;30.11;40.87;100776.39;1672412;85;21568;-84
2021/05/01 05:05:49;;;;;;;31.23;15.03;;;;;;;30.45;38.47;100777.58;1698995;84;21189;-83
2021/05/01 05:08:15;;;;;;;29.48;14.40;;;;;;;30.86;38.04;100769.00;1677138;85;21071;-83
2021/05/01 05:10:41;;;;;;;29.82;14.30;;;;;;;31.13;37.75;100787.52;1698893;83;21630;-83
2021/05/01 05:13:07;;;;;;;23.40;13.32;;;;;;;31.41;37.45;100786.77;1677040;85;20949;-84
2021/05/01 05:15:33;;;;;;;31.30;14.93;;;;;;;31.48;37.47;100790.95;1698947;84;21087;-83
2021/05/01 05:17:59;;;;;;;29.80;14.98;;;;;;;31.38;36.05;100793.92;1677072;85;21184;-83
2021/05/01 05:20:25;;;;;;;28.17;15.58;;;;;;;31.42;35.33;100801.70;1698767;83;20950;-83
2021/05/01 05:22:51;;;;;;;27.55;14.18;;;;;;;31.28;36.25;100800.27;1698914;83;21256;-83
2021/05/01 05:25:17;;;;;;;32.40;14.30;;;;;;;31.83;35.47;100795.70;1677043;85;22443;-83
2021/05/01 05:27:43;;;;;;;25.85;13.98;;;;;;;31.64;33.01;100795.51;1698750;84;21219;-83
2021/05/01 05:30:10;;;;;;;26.93;13.65;;;;;;;32.07;34.66;100796.87;1677007;85;21269;-83
2021/05/01 05:32:36;;;;;;;22.70;13.00;;;;;;;30.90;34.20;100802.59;1694635;83;21024;-83
2021/05/01 05:35:03;;;;;;;26.45;13.40;;;;;;;30.39;34.74;100805.58;1677114;85;21012;-83
2021/05/01 05:37:29;;;;;;;28.40;13.25;;;;;;;31.24;34.51;100805.05;1699025;83;21187;-83
2021/05/01 05:39:56;;;;;;;23.67;12.43;;;;;;;31.68;34.27;100802.50;1677244;85;21633;-83
2021/05/01 05:42:23;;;;;;;24.63;13.53;;;;;;;31.02;34.09;100806.98;1698612;83;22439;-83
2021/05/01 05:44:50;;;;;;;20.52;11.90;;;;;;;31.66;33.38;100807.06;1676872;85;21183;-84
2021/05/01 05:47:18;;;;;;;20.70;11.88;;;;;;;32.01;35.04;100815.21;1698689;83;21143;-83
2021/05/01 05:49:45;;;;;;;23.30;12.05;;;;;;;31.80;34.03;100806.86;1677012;85;21609;-84
2021/05/01 05:52:11;;;;;;;22.52;12.43;;;;;;;32.70;33.06;100808.20;1698934;84;21151;-83
2021/05/01 05:54:38;;;;;;;21.30;11.90;;;;;;;32.70;33.06;100808.20;1676926;85;21229;-84
2021/05/01 05:57:08;;;;;;;23.30;12.15;;;;;;;32.73;33.40;100812.19;1698750;83;21219;-84
2021/05/01 05:59:35;;;;;;;21.12;12.28;;;;;;;32.93;30.59;100809.08;1677016;85;21594;-84
2021/05/01 06:02:04;;;;;;;19.82;12.13;;;;;;;34.05;31.70;100801.43;1698929;83;21616;-83
2021/05/01 06:04:54;;;;;;;25.52;11.70;;;;;;;34.47;30.73;100812.53;1677004;85;21143;-84
2021/05/01 06:07:36;;;;;;;19.67;11.70;;;;;;;34.79;29.58;100814.33;1601000;88;21391;-84
2021/05/01 06:10:07;;;;;;;23.07;11.20;;;;;;;36.44;26.81;100814.98;1585882;89;21627;-84
2021/05/01 06:12:34;;;;;;;25.88;12.95;;;;;;;35.47;28.99;100806.92;1605570;89;21244;-84
2021/05/01 06:15:07;;;;;;;21.77;12.78;;;;;;;34.43;29.02;100813.98;1605510;89;21240;-83
2021/05/01 06:17:35;;;;;;;22.75;12.53;;;;;;;34.75;29.89;100812.20;1560539;91;21313;-83
2021/05/01 06:20:03;;;;;;;21.52;12.07;;;;;;;35.04;28.50;100819.62;1563034;91;21262;-83
2021/05/01 06:22:29;;;;;;;24.00;12.53;;;;;;;34.99;29.60;100827.67;1546306;92;21275;-83
2021/05/01 06:24:55;;;;;;;23.60;11.83;;;;;;;35.04;29.91;100830.83;1563006;91;21540;-83
2021/05/01 06:27:22;;;;;;;20.25;11.95;;;;;;;35.05;29.83;100826.00;1545972;91;21065;-83
2021/05/01 06:29:49;;;;;;;21.60;11.88;;;;;;;36.30;27.25;100812.66;1545225;92;21237;-83
2021/05/01 06:32:17;;;;;;;22.58;12.10;;;;;;;34.20;28.59;100819.45;1545062;92;21199;-81
2021/05/01 06:34:56;;;;;;;20.97;12.45;;;;;;;35.34;28.34;100830.56;1545216;92;21231;-81
2021/05/01 06:37:25;;;;;;;25.10;12.47;;;;;;;35.00;28.53;100830.06;1545209;92;21045;-81
2021/05/01 06:39:55;;;;;;;24.02;11.95;;;;;;;34.45;28.27;100828.36;1545119;92;21127;-81
2021/05/01 06:42:32;;;;;;;21.70;11.85;;;;;;;34.44;28.97;100832.97;1522289;92;21438;-81
2021/05/01 06:45:14;;;;;;;20.37;11.65;;;;;;;34.48;29.45;100830.33;1563136;90;21332;-81
2021/05/01 06:47:49;;;;;;;27.45;12.25;;;;;;;36.58;27.70;100828.13;1572656;90;21680;-81
2021/05/01 06:50:15;;;;;;;17.15;10.48;;;;;;;36.19;27.99;100834.53;1545270;92;21224;-84
2021/05/01 06:52:46;;;;;;;18.02;11.08;;;;;;;36.41;27.64;100838.31;1520807;94;21360;-84
2021/05/01 06:55:17;;;;;;;21.50;12.05;;;;;;;35.44;27.22;100834.41;1544239;92;21243;-83
2021/05/01 06:57:51;;;;;;;20.50;12.07;;;;;;;36.29;26.82;100835.53;1525346;92;21285;-83
2021/05/01 07:00:20;;;;;;;19.42;12.20;;;;;;;37.58;26.33;100834.12;1545297;92;21150;-84
2021/05/01 07:02:49;;;;;;;17.10;10.65;;;;;;;37.30;26.31;100829.36;1545450;92;21182;-81
2021/05/01 07:05:19;;;;;;;17.80;11.10;;;;;;;36.92;25.89;100831.84;1545186;92;21262;-81
2021/05/01 07:07:46;;;;;;;19.80;11.22;;;;;;;38.13;26.37;100832.28;1545454;92;21059;-81
2021/05/01 07:10:14;;;;;;;17.12;11.40;;;;;;;38.32;26.10;100836.16;1545382;92;22015;-81
2021/05/01 07:12:42;;;;;;;19.60;10.48;;;;;;;38.20;25.52;100834.88;1545332;92;21194;-81
2021/05/01 07:15:12;;;;;;;17.75;10.65;;;;;;;38.55;24.23;100837.94;1599014;87;21170;-81
2021/05/01 07:17:40;;;;;;;22.37;11.33;;;;;;;38.96;25.43;100836.31;1543839;91;21257;-81
2021/05/01 07:20:09;;;;;;;19.87;10.72;;;;;;;39.28;24.35;100837.48;1557769;91;21377;-81
2021/05/01 07:22:35;;;;;;;17.02;10.00;;;;;;;38.88;24.52;100832.92;1519220;93;21260;-81
2021/05/01 07:25:03;;;;;;;16.00;10.10;;;;;;;38.78;25.49;100836.22;1557759;90;21236;-81
2021/05/01 07:28:05;;;;;;;21.05;10.72;;;;;;;38.92;25.40;100837.06;1528131;91;21658;-81
2021/05/01 07:30:41;;;;;;;18.48;11.05;;;;;;;37.90;25.06;100841.09;1587622;89;21557;-83
2021/05/01 07:33:32;;;;;;;12.98;8.80;;;;;;;37.33;25.54;100841.14;1585788;89;21335;-83
2021/05/01 07:36:11;;;;;;;12.30;8.55;;;;;;;38.12;26.03;100841.94;1587909;90;21816;-83
2021/05/01 07:38:39;;;;;;;16.30;8.40;;;;;;;37.31;26.97;100839.37;1585780;89;21220;-83
2021/05/01 07:41:05;;;;;;;11.60;7.45;;;;;;;39.08;24.96;100839.12;1567184;90;21184;-83
2021/05/01 07:43:32;;;;;;;14.75;7.28;;;;;;;38.03;25.66;100841.80;1587828;89;21200;-83
2021/05/01 07:46:05;;;;;;;14.15;7.10;;;;;;;38.52;25.15;100841.65;1590244;88;21215;-82
2021/05/01 07:48:30;;;;;;;13.65;8.05;;;;;;;38.73;25.25;100839.59;1615961;87;21135;-83
2021/05/01 07:50:56;;;;;;;13.90;6.78;;;;;;;38.68;24.16;100853.45;1615564;87;21237;-83
2021/05/01 07:53:22;;;;;;;15.13;7.20;;;;;;;38.07;25.30;100850.95;1615718;87;21254;-83
2021/05/01 07:55:48;;;;;;;16.07;6.53;;;;;;;37.99;24.74;100858.00;1615720;88;21099;-83
2021/05/01 07:58:14;;;;;;;11.63;7.87;;;;;;;38.26;24.66;100854.22;1615870;88;21081;-82
2021/05/01 08:00:41;;;;;;;16.80;6.85;;;;;;;38.13;25.19;100857.61;1615991;87;21176;-82
2021/05/01 08:03:06;;;;;;;12.55;7.10;;;;;;;38.69;25.05;100848.00;1615807;87;21207;-83
2021/05/01 08:05:32;;;;;;;14.73;7.47;;;;;;;39.39;24.85;100853.28;1591589;88;21031;-83
2021/05/01 08:07:59;;;;;;;11.68;6.95;;;;;;;39.27;24.95;100854.25;1615740;87;21075;-83
2021/05/01 08:10:26;;;;;;;11.85;6.78;;;;;;;37.70;24.40;100858.09;1615776;87;21313;-82
2021/05/01 08:12:52;;;;;;;13.15;6.85;;;;;;;39.28;24.15;100852.99;1615898;87;21263;-83
2021/05/01 08:15:18;;;;;;;16.02;6.92;;;;;;;38.66;25.04;100859.54;1687054;84;21100;-83
2021/05/01 08:17:44;;;;;;;11.57;5.33;;;;;;;37.92;23.99;100863.97;1677138;85;21056;-83
2021/05/01 08:20:13;;;;;;;13.53;6.08;;;;;;;39.08;23.56;100849.63;1677046;85;21175;-82
2021/05/01 08:22:41;;;;;;;8.38;6.08;;;;;;;38.53;24.48;100862.94;1676944;85;21162;-82
2021/05/01 08:25:10;;;;;;;10.38;6.28;;;;;;;37.77;24.52;100854.91;1677109;84;21215;-82
2021/05/01 08:27:37;;;;;;;13.28;7.95;;;;;;;38.01;24.63;100850.70;1694150;83;21263;-82
2021/05/01 08:30:06;;;;;;;15.15;8.13;;;;;;;38.57;24.53;100848.94;1669706;86;21155;-82
2021/05/01 08:32:32;;;;;;;7.37;5.28;;;;;;;38.36;25.06;100851.73;1669747;85;21234;-82
2021/05/01 08:34:59;;;;;;;11.45;4.62;;;;;;;37.65;25.25;100852.20;1669732;85;21147;-82
2021/05/01 08:37:24;;;;;;;12.50;4.65;;;;;;;38.67;24.44;100837.78;1669849;86;22034;-82
2021/05/01 08:39:50;;;;;;;10.15;5.25;;;;;;;36.73;24.71;100850.30;1669762;85;21032;-82
2021/05/01 08:42:17;;;;;;;9.10;3.83;;;;;;;34.86;27.18;100854.07;1646498;86;21064;-82
2021/05/01 08:44:43;;;;;;;9.73;4.60;;;;;;;35.30;26.62;100854.25;1669894;86;21116;-82
2021/05/01 08:47:09;;;;;;;5.75;3.87;;;;;;;34.90;26.54;100861.80;1669755;86;20977;-82
2021/05/01 08:49:35;;;;;;;13.10;4.30;;;;;;;35.51;26.98;100863.74;1646331;86;21187;-82
2021/05/01 08:52:03;;;;;;;14.23;4.12;;;;;;;35.91;26.56;100866.69;1669575;86;21248;-82
2021/05/01 08:54:29;;;;;;;7.92;4.55;;;;;;;36.88;26.68;100862.80;1669689;86;21180;-82
2021/05/01 08:56:56;;;;;;;5.20;3.62;;;;;;;36.88;26.68;100862.80;1669697;86;20949;-82
2021/05/01 08:59:22;;;;;;;14.90;3.75;;;;;;;36.99;25.15;100854.93;1669765;85;21124;-82
2021/05/01 09:01:50;;;;;;;4.75;2.87;;;;;;;34.45;28.20;100860.55;1665860;86;21138;-82
2021/05/01 09:04:17;;;;;;;7.50;3.22;;;;;;;33.95;28.18;100861.66;1655018;86;21223;-82
2021/05/01 09:06:43;;;;;;;6.95;3.42;;;;;;;34.06;28.90;100864.58;1655206;86;21575;-82
2021/05/01 09:09:11;;;;;;;6.92;3.17;;;;;;;35.41;28.19;100862.67;1655083;86;21204;-82
2021/05/01 09:11:46;;;;;;;10.13;3.00;;;;;;;36.63;26.66;100864.77;1655178;86;21168;-82
2021/05/01 09:14:29;;;;;;;7.40;3.22;;;;;;;35.75;27.21;100866.59;1655212;86;21255;-86
2021/05/01 09:17:06;;;;;;;6.80;2.98;;;;;;;36.24;27.26;100871.12;1641461;87;21182;-83
2021/05/01 09:19:41;;;;;;;4.30;2.83;;;;;;;37.52;24.98;100859.16;1595285;89;21191;-83
2021/05/01 09:22:11;;;;;;;4.28;2.65;;;;;;;36.46;25.93;100867.30;1595170;89;21232;-83
2021/05/01 09:24:37;;;;;;;5.03;2.58;;;;;;;35.15;27.28;100862.90;1595447;89;21549;-82
2021/05/01 09:27:05;;;;;;;4.80;2.65;;;;;;;34.55;27.38;100865.86;1595334;89;21342;-83
2021/05/01 09:29:36;;;;;;;4.40;2.52;;;;;;;33.23;29.82;100867.78;1593141;89;21267;-83
2021/05/01 09:32:04;;;;;;;6.33;2.50;;;;;;;34.35;29.39;100860.05;1595392;89;21139;-83
2021/05/01 09:34:41;;;;;;;7.15;2.65;;;;;;;34.41;28.90;100866.78;1595318;89;21518;-83
2021/05/01 09:37:08;;;;;;;7.40;2.52;;;;;;;35.12;28.08;100872.73;1594733;88;21036;-83
2021/05/01 09:39:34;;;;;;;3.92;2.70;;;;;;;35.23;26.25;100872.76;1595402;89;21790;-82
2021/05/01 09:42:13;;;;;;;5.62;2.90;;;;;;;33.83;28.51;100870.75;1595265;89;21139;-83
2021/05/01 09:44:39;;;;;;;6.28;2.80;;;;;;;33.23;29.05;100868.56;1593946;89;21182;-83
2021/05/01 09:47:16;;;;;;;8.85;2.58;;;;;;;32.25;30.38;100884.68;1591927;89;21021;-82
2021/05/01 09:49:46;;;;;;;5.72;3.08;;;;;;;31.90;30.52;100891.09;1593613;89;21230;-82
2021/05/01 09:52:15;;;;;;;6.80;2.92;;;;;;;31.51;31.20;100884.09;1595279;89;21201;-84
2021/05/01 09:54:44;;;;;;;5.12;3.22;;;;;;;30.63;32.14;100880.59;1574402;89;21112;-84
2021/05/01 09:57:19;;;;;;;5.12;3.10;;;;;;;30.18;33.07;100884.05;1595234;89;21155;-81
2021/05/01 09:59:55;;;;;;;8.35;2.72;;;;;;;30.31;34.08;100881.20;1595265;89;21269;-81
2021/05/01 10:02:33;;;;;;;6.08;2.95;;;;;;;30.28;33.72;100885.55;1591968;89;21222;-81
2021/05/01 10:05:13;;;;;;;10.75;3.50;;;;;;;30.00;34.56;100875.02;1570083;91;23130;-81
2021/05/01 10:10:18;;;;;;;6.00;3.00;;;;;;;30.13;34.76;100878.88;1475639;97;21282;-81
2021/05/01 10:12:45;;;;;;;10.58;3.60;;;;;;;29.97;34.03;100874.37;1455593;97;21647;-81
2021/05/01 10:15:18;;;;;;;8.80;3.25;;;;;;;29.75;35.28;100878.98;1480658;95;21277;-81
2021/05/01 10:17:47;;;;;;;8.15;2.60;;;;;;;29.55;35.49;100883.92;1518195;94;21404;-81
2021/05/01 10:20:15;;;;;;;6.17;3.00;;;;;;;29.97;34.94;100872.19;1502407;95;21230;-81
2021/05/01 10:22:43;;;;;;;5.30;3.17;;;;;;;29.04;36.03;100881.81;1518112;94;21276;-81
2021/05/01 10:25:14;;;;;;;9.08;3.52;;;;;;;29.10;35.96;100875.34;1502257;95;21322;-80
2021/05/01 10:33:31;;;;;;;11.25;2.95;;;;;;;28.62;37.07;100886.20;1408454;101;21178;-83
2021/05/01 10:36:05;;;;;;;6.58;2.70;;;;;;;28.83;37.03;100883.72;1408330;100;21200;-83
2021/05/01 10:38:33;;;;;;;7.37;2.65;;;;;;;29.10;35.35;100890.61;1408366;101;21463;-83
2021/05/01 10:41:03;;;;;;;7.72;3.10;;;;;;;29.04;35.57;100892.13;1408444;100;21220;-83
2021/05/01 10:43:33;;;;;;;4.35;2.40;;;;;;;29.36;35.55;100896.05;1398657;101;21318;-84
2021/05/01 10:46:06;;;;;;;5.47;3.05;;;;;;;28.94;35.11;100887.99;1394059;102;21357;-84
2021/05/01 10:48:48;;;;;;;4.62;2.30;;;;;;;28.76;36.30;100897.48;1393748;101;21190;-84
2021/05/01 10:51:20;;;;;;;3.83;2.60;;;;;;;28.58;34.96;100892.30;1393150;102;21256;-84
2021/05/01 10:53:48;;;;;;;4.47;2.47;;;;;;;28.28;35.43;100897.98;1393908;102;21292;-84
2021/05/01 10:56:18;;;;;;;6.33;2.87;;;;;;;28.13;35.74;100891.23;1391430;102;21245;-84
2021/05/01 10:58:47;;;;;;;5.42;2.58;;;;;;;28.31;36.06;100890.31;1391186;102;21301;-82
2021/05/01 11:01:37;;;;;;;7.95;2.80;;;;;;;28.61;36.54;100891.55;1393957;102;21345;-82
2021/05/01 11:04:07;;;;;;;5.12;3.10;;;;;;;27.95;36.43;100891.73;1336436;107;21336;-85
2021/05/01 11:06:50;;;;;;;5.35;2.83;;;;;;;27.44;37.33;100905.84;1325183;106;21241;-85
2021/05/01 11:09:41;;;;;;;8.23;3.15;;;;;;;27.59;37.25;100893.88;1344786;106;22091;-85
2021/05/01 11:12:14;;;;;;;5.00;2.55;;;;;;;27.49;37.29;100891.70;1364294;103;21296;-84
2021/05/01 11:14:46;;;;;;;4.53;2.50;;;;;;;27.37;38.06;100899.59;1309392;109;21394;-84
2021/05/01 11:17:33;;;;;;;;;;;;;;;27.29;37.83;100894.29;1311449;109;21273;-82
2021/05/01 11:20:16;;;;;;;5.72;3.00;;;;;;;26.68;37.90;100896.61;1317309;106;20434;-84
2021/05/01 11:22:48;;;;;;;12.98;3.22;;;;;;;26.55;38.30;100886.83;1342759;106;40319;-84
2021/05/01 11:25:18;;;;;;;13.03;3.08;;;;;;;26.83;38.94;100882.50;1373849;103;21122;-82